createdAt,value
2019-04-22T00:02:07.975Z,13.00
2019-04-22T00:04:58.924Z,12.90
2019-04-22T00:07:56.794Z,12.90
2019-04-22T00:10:44.291Z,12.90
2019-04-22T00:13:29.192Z,12.80
2019-04-22T00:15:59.304Z,12.80
2019-04-22T00:19:01.355Z,12.80
2019-04-22T00:21:35.362Z,12.70
2019-04-22T00:24:12.074Z,12.70
2019-04-22T00:26:59.945Z,12.70
2019-04-22T00:29:49.886Z,12.70
2019-04-22T00:32:39.633Z,12.60
2019-04-22T00:35:19.787Z,12.60
2019-04-22T00:38:03.486Z,12.60
2019-04-22T00:40:46.075Z,12.60
2019-04-22T00:43:28.844Z,12.60
2019-04-22T00:46:15.621Z,12.60
2019-04-22T00:49:20.485Z,12.50
2019-04-22T00:51:33.784Z,12.50
2019-04-22T00:54:14.266Z,12.40
2019-04-22T00:57:01.154Z,12.50
2019-04-22T00:59:37.504Z,12.40
2019-04-22T01:02:27.423Z,12.40
2019-04-22T01:05:08.101Z,12.40
2019-04-22T01:07:49.894Z,12.40
2019-04-22T01:10:31.880Z,12.40
2019-04-22T01:13:15.891Z,12.40
2019-04-22T01:16:00.881Z,12.40
2019-04-22T01:18:36.211Z,12.30
2019-04-22T01:21:24.376Z,12.30
2019-04-22T01:23:57.745Z,12.20
2019-04-22T01:26:34.553Z,12.20
2019-04-22T01:29:14.834Z,12.20
2019-04-22T01:31:46.021Z,12.20
2019-04-22T01:34:40.878Z,12.20
2019-04-22T01:37:28.885Z,12.20
2019-04-22T01:40:21.477Z,12.20
2019-04-22T01:43:02.114Z,12.10
2019-04-22T01:45:45.028Z,12.10
2019-04-22T01:48:26.846Z,12.10
2019-04-22T01:51:01.330Z,12.00
2019-04-22T01:53:51.748Z,12.00
2019-04-22T01:56:36.469Z,12.00
2019-04-22T01:58:54.597Z,12.00
2019-04-22T02:01:41.732Z,12.00
2019-04-22T02:04:13.871Z,12.00
2019-04-22T02:06:57.247Z,12.00
2019-04-22T02:09:45.621Z,12.10
2019-04-22T02:12:33.712Z,12.10
2019-04-22T02:15:23.444Z,12.10
2019-04-22T02:18:17.834Z,12.00
2019-04-22T02:21:01.700Z,11.90
2019-04-22T02:26:57.663Z,11.90
2019-04-22T02:29:47.277Z,11.90
2019-04-22T02:35:30.636Z,11.90
2019-04-22T02:37:35.410Z,11.80
2019-04-22T02:40:09.735Z,11.80
2019-04-22T02:42:45.640Z,11.80
2019-04-22T02:45:10.017Z,11.80
2019-04-22T02:47:47.592Z,11.70
2019-04-22T02:50:32.539Z,11.70
2019-04-22T02:53:47.975Z,11.70
2019-04-22T02:56:27.582Z,11.60
2019-04-22T03:02:04.816Z,11.60
2019-04-22T03:04:57.877Z,11.50
2019-04-22T03:07:55.219Z,11.50
2019-04-22T03:10:41.865Z,11.50
2019-04-22T03:12:51.987Z,11.50
2019-04-22T03:15:48.307Z,11.50
2019-04-22T03:18:09.938Z,11.40
2019-04-22T03:20:42.711Z,11.50
2019-04-22T03:28:43.574Z,11.40
2019-04-22T03:40:28.210Z,11.30
2019-04-22T03:45:42.546Z,11.30
2019-04-22T03:48:45.513Z,11.20
2019-04-22T03:51:38.755Z,11.30
2019-04-22T03:54:29.657Z,11.30
2019-04-22T03:57:25.050Z,11.20
2019-04-22T04:02:38.873Z,11.10
2019-04-22T04:05:24.367Z,11.10
2019-04-22T04:16:03.122Z,11.20
2019-04-22T04:19:07.716Z,11.10
2019-04-22T04:21:37.923Z,11.10
2019-04-22T04:37:56.060Z,11.30
2019-04-22T04:43:08.378Z,11.30
2019-04-22T04:45:49.285Z,11.30
2019-04-22T04:48:18.491Z,11.40
2019-04-22T04:50:55.729Z,11.60
2019-04-22T04:55:38.782Z,12.80
2019-04-22T04:58:27.244Z,13.60
2019-04-22T05:03:32.909Z,14.80
2019-04-22T05:06:12.722Z,15.10
2019-04-22T05:17:03.989Z,16.80
2019-04-22T05:19:37.579Z,17.30
2019-04-22T05:22:20.767Z,17.80
2019-04-22T05:27:45.445Z,18.40
2019-04-22T05:30:43.251Z,18.70
2019-04-22T05:33:19.118Z,19.30
2019-04-22T05:35:53.589Z,19.70
2019-04-22T05:38:39.852Z,19.80
2019-04-22T05:41:10.193Z,20.10
2019-04-22T05:44:04.988Z,20.40
2019-04-22T05:46:49.537Z,20.60
2019-04-22T05:49:35.113Z,21.20
2019-04-22T05:52:26.894Z,21.80
2019-04-22T05:55:21.387Z,22.20
2019-04-22T05:58:09.040Z,22.10
2019-04-22T06:03:39.417Z,22.30
2019-04-22T06:11:32.143Z,21.90
2019-04-22T06:14:22.981Z,21.80
2019-04-22T06:17:11.109Z,21.90
2019-04-22T06:19:50.882Z,22.10
2019-04-22T06:22:45.003Z,22.10
2019-04-22T06:27:38.640Z,22.30
2019-04-22T06:30:04.318Z,22.50
2019-04-22T06:32:51.802Z,22.60
2019-04-22T06:35:09.516Z,22.80
2019-04-22T06:38:14.564Z,22.90
2019-04-22T06:40:11.010Z,22.80
2019-04-22T06:42:58.037Z,22.90
2019-04-22T06:45:40.913Z,22.60
2019-04-22T06:48:52.475Z,22.70
2019-04-22T06:51:30.877Z,23.00
2019-04-22T06:54:14.219Z,22.70
2019-04-22T06:56:59.720Z,21.50
2019-04-22T06:59:53.680Z,21.10
2019-04-22T07:02:47.160Z,20.80
2019-04-22T07:05:07.886Z,20.10
2019-04-22T07:07:33.343Z,19.70
2019-04-22T07:10:15.079Z,19.50
2019-04-22T07:12:36.550Z,19.40
2019-04-22T07:15:12.762Z,19.50
2019-04-22T07:17:55.085Z,19.60
2019-04-22T07:26:21.571Z,19.00
2019-04-22T07:29:17.569Z,18.80
2019-04-22T07:34:52.779Z,18.20
2019-04-22T07:37:59.177Z,18.50
2019-04-22T07:40:40.018Z,18.90
2019-04-22T07:43:29.185Z,19.30
2019-04-22T07:52:18.744Z,19.00
2019-04-22T07:55:12.259Z,19.10
2019-04-22T07:57:51.782Z,19.10
2019-04-22T08:00:38.812Z,19.50
2019-04-22T08:03:32.060Z,19.70
2019-04-22T08:06:12.357Z,19.90
2019-04-22T08:08:58.396Z,19.40
2019-04-22T08:11:43.765Z,19.10
2019-04-22T08:14:16.212Z,19.20
2019-04-22T08:17:19.261Z,19.20
2019-04-22T08:19:43.101Z,19.00
2019-04-22T08:22:24.021Z,19.20
2019-04-22T08:25:04.158Z,19.00
2019-04-22T08:27:50.790Z,19.10
2019-04-22T08:30:33.780Z,19.30
2019-04-22T08:33:15.981Z,19.40
2019-04-22T08:36:07.167Z,19.50
2019-04-22T08:38:43.658Z,19.60
2019-04-22T08:41:27.239Z,20.00
2019-04-22T08:44:05.369Z,19.90
2019-04-22T08:47:04.726Z,19.80
2019-04-22T08:49:28.735Z,19.70
2019-04-22T08:52:09.733Z,19.80
2019-04-22T08:55:01.785Z,19.80
2019-04-22T08:58:00.016Z,20.00
2019-04-22T09:00:12.927Z,20.10
2019-04-22T09:03:02.595Z,20.00
2019-04-22T09:06:02.030Z,19.90
2019-04-22T09:08:32.500Z,20.10
2019-04-22T09:11:16.102Z,20.20
2019-04-22T09:13:58.672Z,20.10
2019-04-22T09:19:12.287Z,20.00
2019-04-22T09:22:03.415Z,19.90
2019-04-22T09:24:30.347Z,19.50
2019-04-22T09:26:53.956Z,19.50
2019-04-22T09:29:34.003Z,19.60
2019-04-22T09:32:09.524Z,19.90
2019-04-22T09:34:28.024Z,20.10
2019-04-22T09:37:07.839Z,20.10
2019-04-22T09:45:34.408Z,19.50
2019-04-22T09:48:30.122Z,19.80
2019-04-22T09:54:14.934Z,20.10
2019-04-22T09:56:58.012Z,19.90
2019-04-22T09:59:57.762Z,19.90
2019-04-22T10:02:41.263Z,19.80
2019-04-22T10:05:14.623Z,19.80
2019-04-22T10:07:42.621Z,19.80
2019-04-22T10:15:10.156Z,20.40
2019-04-22T10:18:05.558Z,20.20
2019-04-22T10:20:54.149Z,20.00
2019-04-22T10:23:47.157Z,20.20
2019-04-22T10:26:34.889Z,20.40
2019-04-22T10:29:31.045Z,20.60
2019-04-22T10:32:07.075Z,20.40
2019-04-22T10:37:34.265Z,20.70
2019-04-22T10:40:44.783Z,20.70
2019-04-22T10:43:33.116Z,20.40
2019-04-22T10:46:22.171Z,20.40
2019-04-22T10:49:12.529Z,20.60
2019-04-22T10:52:00.669Z,20.40
2019-04-22T10:54:49.467Z,20.40
2019-04-22T10:57:39.018Z,20.30
2019-04-22T11:00:29.313Z,20.30
2019-04-22T11:03:39.530Z,20.40
2019-04-22T11:06:29.540Z,20.30
2019-04-22T11:09:18.335Z,20.40
2019-04-22T11:12:13.684Z,20.40
2019-04-22T11:14:58.185Z,20.40
2019-04-22T11:20:37.776Z,20.50
2019-04-22T11:23:06.981Z,20.60
2019-04-22T11:25:55.276Z,20.60
2019-04-22T11:28:43.468Z,20.40
2019-04-22T11:31:34.433Z,20.30
2019-04-22T11:34:22.513Z,20.20
2019-04-22T11:37:10.504Z,20.30
2019-04-22T11:40:18.912Z,20.50
2019-04-22T11:42:50.180Z,20.50
2019-04-22T11:45:39.630Z,20.40
2019-04-22T11:48:29.188Z,20.40
2019-04-22T11:54:25.229Z,20.20
2019-04-22T11:57:13.168Z,20.30
2019-04-22T12:00:01.116Z,20.30
2019-04-22T12:05:37.582Z,20.40
2019-04-22T12:08:07.347Z,20.20
2019-04-22T12:10:44.061Z,20.30
2019-04-22T12:13:08.082Z,20.50
2019-04-22T12:18:31.270Z,20.80
2019-04-22T12:21:19.439Z,20.80
2019-04-22T12:24:09.130Z,20.70
2019-04-22T12:27:00.140Z,20.60
2019-04-22T12:29:49.323Z,20.50
2019-04-22T12:32:37.252Z,20.60
2019-04-22T12:38:20.269Z,20.60
2019-04-22T12:41:11.944Z,20.70
2019-04-22T12:43:59.139Z,20.60
2019-04-22T12:46:48.058Z,20.70
2019-04-22T12:49:40.461Z,20.50
2019-04-22T12:52:36.989Z,20.60
2019-04-22T12:58:23.608Z,20.80
2019-04-22T13:01:13.175Z,20.80
2019-04-22T13:04:05.756Z,20.50
2019-04-22T13:06:44.063Z,20.40
2019-04-22T13:09:25.204Z,20.40
2019-04-22T13:12:06.904Z,20.50
2019-04-22T13:14:48.881Z,20.70
2019-04-22T13:17:31.265Z,20.60
2019-04-22T13:20:15.089Z,20.50
2019-04-22T13:22:56.812Z,20.50
2019-04-22T13:25:38.914Z,20.60
2019-04-22T13:28:21.040Z,20.50
2019-04-22T13:31:02.334Z,20.60
2019-04-22T13:33:44.182Z,20.60
2019-04-22T13:36:27.397Z,20.60
2019-04-22T13:39:07.369Z,20.60
2019-04-22T13:41:52.170Z,20.50
2019-04-22T13:44:18.967Z,20.60
2019-04-22T13:53:44.922Z,20.70
2019-04-22T13:56:12.523Z,20.80
2019-04-22T14:02:10.471Z,20.70
2019-04-22T14:04:54.735Z,20.40
2019-04-22T14:07:36.907Z,20.30
2019-04-22T14:10:18.486Z,20.30
2019-04-22T14:13:00.638Z,20.40
2019-04-22T14:15:43.854Z,20.50
2019-04-22T14:18:25.215Z,20.50
2019-04-22T14:21:06.936Z,20.40
2019-04-22T14:23:48.712Z,20.40
2019-04-22T14:26:46.894Z,20.40
2019-04-22T14:29:11.697Z,20.40
2019-04-22T14:34:36.249Z,20.30
2019-04-22T14:37:18.602Z,20.10
2019-04-22T14:40:00.646Z,20.20
2019-04-22T14:43:03.706Z,20.20
2019-04-22T14:44:12.632Z,20.40
2019-04-22T14:45:58.493Z,20.20
2019-04-22T14:48:38.724Z,20.10
2019-04-22T14:51:07.641Z,20.00
2019-04-22T14:53:50.228Z,20.10
2019-04-22T14:56:16.125Z,20.30
2019-04-22T14:58:56.661Z,20.50
2019-04-22T15:01:41.032Z,20.50
2019-04-22T15:04:08.967Z,20.30
2019-04-22T15:06:50.447Z,20.20
2019-04-22T15:09:32.303Z,20.10
2019-04-22T15:12:20.586Z,20.10
2019-04-22T15:14:43.653Z,20.20
2019-04-22T15:17:20.828Z,20.20
2019-04-22T15:19:53.956Z,20.20
2019-04-22T15:22:22.860Z,20.20
2019-04-22T15:24:52.418Z,20.20
2019-04-22T15:27:41.573Z,20.10
2019-04-22T15:30:30.732Z,20.10
2019-04-22T15:33:19.401Z,20.00
2019-04-22T15:36:10.001Z,20.10
2019-04-22T15:38:59.617Z,20.20
2019-04-22T15:41:58.157Z,20.20
2019-04-22T15:44:38.100Z,20.10
2019-04-22T15:47:27.044Z,20.10
2019-04-22T15:50:16.192Z,20.10
2019-04-22T15:56:14.708Z,19.90
2019-04-22T15:58:45.903Z,19.90
2019-04-22T16:01:23.012Z,19.90
2019-04-22T16:03:45.159Z,19.90
2019-04-22T16:06:34.711Z,19.90
2019-04-22T16:09:17.359Z,19.90
2019-04-22T16:12:10.981Z,19.90
2019-04-22T16:14:45.396Z,19.80
2019-04-22T16:17:22.565Z,19.80
2019-04-22T16:20:03.941Z,19.80
2019-04-22T16:23:05.571Z,19.90
2019-04-22T16:25:49.503Z,19.90
2019-04-22T16:28:31.309Z,19.70
2019-04-22T16:31:13.491Z,19.70
2019-04-22T16:33:56.213Z,19.70
2019-04-22T16:36:38.644Z,19.70
2019-04-22T16:39:20.732Z,19.70
2019-04-22T16:42:02.631Z,19.70
2019-04-22T16:44:45.992Z,19.60
2019-04-22T16:47:27.798Z,19.60
2019-04-22T16:50:09.940Z,19.50
2019-04-22T16:52:52.211Z,19.50
2019-04-22T16:55:34.855Z,19.40
2019-04-22T16:58:16.719Z,19.30
2019-04-22T17:00:58.812Z,19.30
2019-04-22T17:03:58.829Z,19.30
2019-04-22T17:06:45.487Z,19.30
2019-04-22T17:09:27.844Z,19.30
2019-04-22T17:12:09.801Z,19.20
2019-04-22T17:14:56.760Z,19.20
2019-04-22T17:17:22.317Z,19.10
2019-04-22T17:19:51.345Z,19.20
2019-04-22T17:22:21.635Z,19.10
2019-04-22T17:25:09.808Z,19.00
2019-04-22T17:27:59.174Z,19.00
2019-04-22T17:30:47.825Z,18.90
2019-04-22T17:36:44.451Z,18.80
2019-04-22T17:39:57.309Z,18.80
2019-04-22T17:42:42.326Z,18.70
2019-04-22T17:45:56.035Z,18.70
2019-04-22T17:49:04.429Z,18.60
2019-04-22T17:52:15.685Z,18.60
2019-04-22T17:55:02.702Z,18.60
2019-04-22T17:57:49.508Z,18.50
2019-04-22T18:00:41.900Z,18.50
2019-04-22T18:03:03.151Z,18.40
2019-04-22T18:05:28.524Z,18.30
2019-04-22T18:08:27.436Z,18.30
2019-04-22T18:11:05.975Z,18.30
2019-04-22T18:13:55.024Z,18.20
2019-04-22T18:16:34.651Z,18.20
2019-04-22T18:19:16.758Z,18.10
2019-04-22T18:21:53.352Z,18.10
2019-04-22T18:24:26.414Z,18.00
2019-04-22T18:27:34.354Z,18.00
2019-04-22T18:30:02.200Z,17.90
2019-04-22T18:32:46.719Z,17.90
2019-04-22T18:35:26.476Z,17.80
2019-04-22T18:38:26.884Z,17.80
2019-04-22T18:40:53.574Z,17.70
2019-04-22T18:43:42.211Z,17.70
2019-04-22T18:46:15.772Z,17.70
2019-04-22T18:49:06.977Z,17.60
2019-04-22T18:58:02.616Z,17.50
2019-04-22T19:00:59.655Z,17.40
2019-04-22T19:07:23.566Z,17.30
2019-04-22T19:10:03.323Z,17.30
2019-04-22T19:12:53.123Z,17.20
2019-04-22T19:15:18.962Z,17.20
2019-04-22T19:17:54.469Z,17.10
2019-04-22T19:20:18.466Z,17.10
2019-04-22T19:22:43.836Z,17.00
2019-04-22T19:25:05.885Z,17.00
2019-04-22T19:27:42.196Z,16.90
2019-04-22T19:30:16.406Z,16.80
2019-04-22T19:32:48.569Z,16.80
2019-04-22T19:35:14.092Z,16.70
2019-04-22T19:37:42.500Z,16.60
2019-04-22T19:41:13.476Z,16.60
2019-04-22T19:43:46.514Z,16.50
2019-04-22T19:46:28.190Z,16.40
2019-04-22T19:49:34.061Z,16.40
2019-04-22T19:52:21.902Z,16.30
2019-04-22T19:55:09.511Z,16.20
2019-04-22T19:57:52.517Z,16.20
2019-04-22T20:00:50.671Z,16.10
2019-04-22T20:03:57.863Z,16.00
2019-04-22T20:09:43.882Z,15.80
2019-04-22T20:12:21.455Z,15.70
2019-04-22T20:15:00.391Z,15.70
2019-04-22T20:18:08.615Z,15.60
2019-04-22T20:20:31.714Z,15.50
2019-04-22T20:23:10.190Z,15.50
2019-04-22T20:25:51.058Z,15.40
2019-04-22T20:28:37.789Z,15.40
2019-04-22T20:31:19.299Z,15.30
2019-04-22T20:34:12.945Z,15.30
2019-04-22T20:36:57.028Z,15.20
2019-04-22T20:39:36.312Z,15.20
2019-04-22T20:42:23.379Z,15.10
2019-04-22T20:44:57.196Z,15.10
2019-04-22T20:47:32.222Z,15.00
2019-04-22T20:50:25.067Z,15.00
2019-04-22T20:53:07.155Z,14.90
2019-04-22T20:55:43.631Z,14.60
2019-04-22T20:58:28.293Z,14.90
2019-04-22T21:00:53.157Z,14.80
2019-04-22T21:03:23.773Z,14.80
2019-04-22T21:06:27.458Z,14.80
2019-04-22T21:09:03.127Z,14.80
2019-04-22T21:11:38.574Z,14.70
2019-04-22T21:14:19.953Z,14.70
2019-04-22T21:17:10.247Z,14.70
2019-04-22T21:20:10.009Z,14.60
2019-04-22T21:22:33.545Z,14.60
2019-04-22T21:25:08.815Z,14.60
2019-04-22T21:28:06.287Z,14.50
2019-04-22T21:30:37.755Z,14.50
2019-04-22T21:33:18.505Z,14.40
2019-04-22T21:36:14.053Z,14.40
2019-04-22T21:38:51.617Z,14.40
2019-04-22T21:41:30.688Z,14.30
2019-04-22T21:44:14.410Z,14.30
2019-04-22T21:47:08.646Z,14.20
2019-04-22T21:49:40.487Z,14.30
2019-04-22T21:52:24.397Z,14.20
2019-04-22T21:55:14.424Z,14.20
2019-04-22T21:57:57.354Z,14.20
2019-04-22T22:00:43.492Z,14.10
2019-04-22T22:03:19.442Z,14.10
2019-04-22T22:05:53.391Z,14.10
2019-04-22T22:08:46.085Z,14.00
2019-04-22T22:11:27.845Z,14.00
2019-04-22T22:14:07.666Z,14.00
2019-04-22T22:16:44.555Z,14.00
2019-04-22T22:19:35.949Z,14.00
2019-04-22T22:22:35.232Z,14.00
2019-04-22T22:25:04.560Z,13.90
2019-04-22T22:27:40.199Z,13.90
2019-04-22T22:30:42.723Z,13.90
2019-04-22T22:36:27.137Z,13.80
2019-04-22T22:38:55.094Z,13.80
2019-04-22T22:41:29.983Z,13.80
2019-04-22T22:44:27.252Z,13.80
2019-04-22T22:47:35.812Z,13.80
2019-04-22T22:50:20.865Z,13.80
2019-04-22T22:56:00.555Z,13.80
2019-04-22T22:58:54.072Z,13.80
2019-04-22T23:01:39.679Z,13.70
2019-04-22T23:04:37.238Z,13.70
2019-04-22T23:07:24.284Z,13.70
2019-04-22T23:13:01.651Z,13.70
2019-04-22T23:15:25.453Z,13.60
2019-04-22T23:17:47.963Z,13.40
2019-04-22T23:20:34.324Z,13.60
2019-04-22T23:23:36.125Z,13.60
2019-04-22T23:26:11.887Z,13.60
2019-04-22T23:28:54.776Z,13.50
2019-04-22T23:31:22.120Z,13.50
2019-04-22T23:33:57.280Z,13.50
2019-04-22T23:36:36.820Z,13.50
2019-04-22T23:39:15.733Z,13.50
2019-04-22T23:41:51.341Z,13.40
2019-04-22T23:46:46.499Z,13.40
2019-04-22T23:49:17.456Z,13.40
2019-04-22T23:52:06.854Z,13.40
2019-04-22T23:54:31.587Z,13.30
2019-04-22T23:57:20.753Z,13.30
